Village, Texas
Current Conditions -  °F | °C
As of 5:53 PM on Thursday 27 Nov 2014 (Local Time) from KDAL Reporting Station
Few Clouds Few Clouds  
Wind Chill: 55°   Ceiling: Unl
Heat Index: 55°   Visibility: 10mi
Dew Point: 21°   Wind: 0mph
Humidity: 27%   Direction: NA
Pressure: 30.41"   Gusts: NA
Location:  32.8367°N, 96.796°W
Report Text: KDAL 272353Z 00000KT 10SM FEW001 FEW250 13/M06 A3041 RMK AO2 SLP296 FU FEW001 S AND AT APCH END RY13R T01281061 10150 20122 58009
Loading
Personal Weather Stations






























Interactive Weather Map New forecast layout! Learn more

10-Day Weather Forecast

Advertisements
Track Severe Weather on mobile